sensor_id;sensor_type;location;lat;lon;timestamp;temperature;humidity
9006;DHT22;62284;50.702;7.140;2022-10-17T00:00:44;18.50;99.90
9006;DHT22;62284;50.702;7.140;2022-10-17T00:03:12;18.50;99.90
9006;DHT22;62284;50.702;7.140;2022-10-17T00:05:40;18.50;99.90
9006;DHT22;62284;50.702;7.140;2022-10-17T00:08:07;18.50;99.90
9006;DHT22;62284;50.702;7.140;2022-10-17T00:10:36;18.50;99.90
9006;DHT22;62284;50.702;7.140;2022-10-17T00:13:03;18.50;99.90
9006;DHT22;62284;50.702;7.140;2022-10-17T00:15:30;18.60;99.90
9006;DHT22;62284;50.702;7.140;2022-10-17T00:17:58;18.60;99.90
9006;DHT22;62284;50.702;7.140;2022-10-17T00:20:25;18.50;99.90
9006;DHT22;62284;50.702;7.140;2022-10-17T00:22:52;18.50;99.90
9006;DHT22;62284;50.702;7.140;2022-10-17T00:25:19;18.50;99.90
9006;DHT22;62284;50.702;7.140;2022-10-17T00:27:47;18.50;99.90
9006;DHT22;62284;50.702;7.140;2022-10-17T00:30:14;18.50;99.90
9006;DHT22;62284;50.702;7.140;2022-10-17T00:32:42;18.60;99.90
9006;DHT22;62284;50.702;7.140;2022-10-17T00:35:08;18.60;99.90
9006;DHT22;62284;50.702;7.140;2022-10-17T00:37:35;18.60;99.90
9006;DHT22;62284;50.702;7.140;2022-10-17T00:40:03;18.50;99.90
9006;DHT22;62284;50.702;7.140;2022-10-17T00:42:30;18.50;99.90
9006;DHT22;62284;50.702;7.140;2022-10-17T00:45:09;18.50;99.90
9006;DHT22;62284;50.702;7.140;2022-10-17T00:47:38;18.50;99.90
9006;DHT22;62284;50.702;7.140;2022-10-17T00:50:07;18.30;99.90
9006;DHT22;62284;50.702;7.140;2022-10-17T00:52:35;18.30;99.90
9006;DHT22;62284;50.702;7.140;2022-10-17T00:55:06;18.30;99.90
9006;DHT22;62284;50.702;7.140;2022-10-17T00:57:36;18.30;99.90
9006;DHT22;62284;50.702;7.140;2022-10-17T01:00:08;18.30;99.90
9006;DHT22;62284;50.702;7.140;2022-10-17T01:02:36;18.20;99.90
9006;DHT22;62284;50.702;7.140;2022-10-17T01:05:04;18.20;99.90
9006;DHT22;62284;50.702;7.140;2022-10-17T01:07:32;18.20;99.90
9006;DHT22;62284;50.702;7.140;2022-10-17T01:09:59;18.20;99.90
9006;DHT22;62284;50.702;7.140;2022-10-17T01:12:31;18.20;99.90
9006;DHT22;62284;50.702;7.140;2022-10-17T01:15:11;18.20;99.90
9006;DHT22;62284;50.702;7.140;2022-10-17T01:17:48;18.20;99.90
9006;DHT22;62284;50.702;7.140;2022-10-17T01:23:34;18.20;99.90
9006;DHT22;62284;50.702;7.140;2022-10-17T01:26:13;18.20;99.90
9006;DHT22;62284;50.702;7.140;2022-10-17T01:29:00;18.20;99.90
9006;DHT22;62284;50.702;7.140;2022-10-17T01:31:36;18.20;99.90
9006;DHT22;62284;50.702;7.140;2022-10-17T01:34:08;18.20;99.90
9006;DHT22;62284;50.702;7.140;2022-10-17T01:36:42;18.20;99.90
9006;DHT22;62284;50.702;7.140;2022-10-17T01:39:16;18.20;99.90
9006;DHT22;62284;50.702;7.140;2022-10-17T01:41:49;18.20;99.90
9006;DHT22;62284;50.702;7.140;2022-10-17T01:44:19;18.20;99.90
9006;DHT22;62284;50.702;7.140;2022-10-17T01:46:50;18.20;99.90
9006;DHT22;62284;50.702;7.140;2022-10-17T01:49:21;18.20;99.90
9006;DHT22;62284;50.702;7.140;2022-10-17T01:51:52;18.20;99.90
9006;DHT22;62284;50.702;7.140;2022-10-17T01:54:23;18.20;99.90
9006;DHT22;62284;50.702;7.140;2022-10-17T01:56:57;18.20;99.90
9006;DHT22;62284;50.702;7.140;2022-10-17T01:59:28;18.20;99.90
9006;DHT22;62284;50.702;7.140;2022-10-17T02:01:58;18.20;99.90
9006;DHT22;62284;50.702;7.140;2022-10-17T02:04:26;18.20;99.90
9006;DHT22;62284;50.702;7.140;2022-10-17T02:06:53;18.20;99.90
9006;DHT22;62284;50.702;7.140;2022-10-17T02:09:21;18.20;99.90
9006;DHT22;62284;50.702;7.140;2022-10-17T02:12:03;18.20;99.90
9006;DHT22;62284;50.702;7.140;2022-10-17T02:14:42;18.20;99.90
9006;DHT22;62284;50.702;7.140;2022-10-17T02:17:21;18.20;99.90
9006;DHT22;62284;50.702;7.140;2022-10-17T02:19:57;18.20;99.90
9006;DHT22;62284;50.702;7.140;2022-10-17T02:22:34;18.20;99.90
9006;DHT22;62284;50.702;7.140;2022-10-17T02:25:08;18.30;99.90
9006;DHT22;62284;50.702;7.140;2022-10-17T02:27:43;18.20;99.90
9006;DHT22;62284;50.702;7.140;2022-10-17T02:30:16;18.20;99.90
9006;DHT22;62284;50.702;7.140;2022-10-17T02:32:53;18.10;99.90
9006;DHT22;62284;50.702;7.140;2022-10-17T02:35:21;18.10;99.90
9006;DHT22;62284;50.702;7.140;2022-10-17T02:37:51;18.10;99.90
9006;DHT22;62284;50.702;7.140;2022-10-17T02:40:20;18.10;99.90
9006;DHT22;62284;50.702;7.140;2022-10-17T02:42:49;18.10;99.90
9006;DHT22;62284;50.702;7.140;2022-10-17T02:45:16;18.10;99.90
9006;DHT22;62284;50.702;7.140;2022-10-17T02:47:53;18.10;99.90
9006;DHT22;62284;50.702;7.140;2022-10-17T02:50:26;18.10;99.90
9006;DHT22;62284;50.702;7.140;2022-10-17T02:52:58;18.10;99.90
9006;DHT22;62284;50.702;7.140;2022-10-17T02:55:29;18.10;99.90
9006;DHT22;62284;50.702;7.140;2022-10-17T02:57:59;18.10;99.90
9006;DHT22;62284;50.702;7.140;2022-10-17T03:00:30;18.10;99.90
9006;DHT22;62284;50.702;7.140;2022-10-17T03:02:58;18.10;99.90
9006;DHT22;62284;50.702;7.140;2022-10-17T03:05:27;18.10;99.90
9006;DHT22;62284;50.702;7.140;2022-10-17T03:07:55;18.20;99.90
9006;DHT22;62284;50.702;7.140;2022-10-17T03:10:22;18.10;99.90
9006;DHT22;62284;50.702;7.140;2022-10-17T03:12:49;18.20;99.90
9006;DHT22;62284;50.702;7.140;2022-10-17T03:15:16;18.20;99.90
9006;DHT22;62284;50.702;7.140;2022-10-17T03:17:43;18.20;99.90
9006;DHT22;62284;50.702;7.140;2022-10-17T03:20:11;18.20;99.90
9006;DHT22;62284;50.702;7.140;2022-10-17T03:22:38;18.20;99.90
9006;DHT22;62284;50.702;7.140;2022-10-17T03:25:05;18.20;99.90
9006;DHT22;62284;50.702;7.140;2022-10-17T03:27:32;18.10;99.90
9006;DHT22;62284;50.702;7.140;2022-10-17T03:29:59;18.10;99.90
9006;DHT22;62284;50.702;7.140;2022-10-17T03:32:26;18.20;99.90
9006;DHT22;62284;50.702;7.140;2022-10-17T03:34:52;18.10;99.90
9006;DHT22;62284;50.702;7.140;2022-10-17T03:37:21;18.10;99.90
9006;DHT22;62284;50.702;7.140;2022-10-17T03:39:47;18.20;99.90
9006;DHT22;62284;50.702;7.140;2022-10-17T03:42:14;18.20;99.90
9006;DHT22;62284;50.702;7.140;2022-10-17T03:44:41;18.20;99.90
9006;DHT22;62284;50.702;7.140;2022-10-17T03:47:08;18.20;99.90
9006;DHT22;62284;50.702;7.140;2022-10-17T03:49:35;18.20;99.90
9006;DHT22;62284;50.702;7.140;2022-10-17T03:52:02;18.10;99.90
9006;DHT22;62284;50.702;7.140;2022-10-17T03:54:31;18.10;99.90
9006;DHT22;62284;50.702;7.140;2022-10-17T03:56:58;18.10;99.90
9006;DHT22;62284;50.702;7.140;2022-10-17T03:59:24;18.10;99.90
9006;DHT22;62284;50.702;7.140;2022-10-17T04:01:51;18.10;99.90
9006;DHT22;62284;50.702;7.140;2022-10-17T04:04:18;18.10;99.90
9006;DHT22;62284;50.702;7.140;2022-10-17T04:06:45;18.00;99.90
9006;DHT22;62284;50.702;7.140;2022-10-17T04:09:12;18.00;99.90
9006;DHT22;62284;50.702;7.140;2022-10-17T04:11:40;18.10;99.90
9006;DHT22;62284;50.702;7.140;2022-10-17T04:14:08;18.00;99.90
9006;DHT22;62284;50.702;7.140;2022-10-17T04:16:35;18.10;99.90
9006;DHT22;62284;50.702;7.140;2022-10-17T04:19:02;18.10;99.90
9006;DHT22;62284;50.702;7.140;2022-10-17T04:21:29;18.20;99.90
9006;DHT22;62284;50.702;7.140;2022-10-17T04:23:57;18.20;99.90
9006;DHT22;62284;50.702;7.140;2022-10-17T04:26:25;18.20;99.90
9006;DHT22;62284;50.702;7.140;2022-10-17T04:28:53;18.10;99.90
9006;DHT22;62284;50.702;7.140;2022-10-17T04:31:20;18.20;99.90
9006;DHT22;62284;50.702;7.140;2022-10-17T04:33:48;18.10;99.90
9006;DHT22;62284;50.702;7.140;2022-10-17T04:36:17;18.10;99.90
9006;DHT22;62284;50.702;7.140;2022-10-17T04:38:44;18.10;99.90
9006;DHT22;62284;50.702;7.140;2022-10-17T04:41:12;18.10;99.90
9006;DHT22;62284;50.702;7.140;2022-10-17T04:43:40;18.00;99.90
9006;DHT22;62284;50.702;7.140;2022-10-17T04:46:10;18.10;99.90
9006;DHT22;62284;50.702;7.140;2022-10-17T04:48:38;18.00;99.90
9006;DHT22;62284;50.702;7.140;2022-10-17T04:51:07;18.00;99.90
9006;DHT22;62284;50.702;7.140;2022-10-17T04:53:35;17.90;99.90
9006;DHT22;62284;50.702;7.140;2022-10-17T04:56:07;17.90;99.90
9006;DHT22;62284;50.702;7.140;2022-10-17T04:58:34;17.90;99.90
9006;DHT22;62284;50.702;7.140;2022-10-17T05:01:04;17.80;99.90
9006;DHT22;62284;50.702;7.140;2022-10-17T05:03:33;17.80;99.90
9006;DHT22;62284;50.702;7.140;2022-10-17T05:06:03;17.80;99.90
9006;DHT22;62284;50.702;7.140;2022-10-17T05:08:31;17.80;99.90
9006;DHT22;62284;50.702;7.140;2022-10-17T05:10:58;17.80;99.90
9006;DHT22;62284;50.702;7.140;2022-10-17T05:13:25;17.80;99.90
9006;DHT22;62284;50.702;7.140;2022-10-17T05:15:52;17.80;99.90
9006;DHT22;62284;50.702;7.140;2022-10-17T05:18:19;17.80;99.90
9006;DHT22;62284;50.702;7.140;2022-10-17T05:20:47;17.80;99.90
9006;DHT22;62284;50.702;7.140;2022-10-17T05:23:14;17.80;99.90
9006;DHT22;62284;50.702;7.140;2022-10-17T05:25:40;17.90;99.90
9006;DHT22;62284;50.702;7.140;2022-10-17T05:28:07;17.90;99.90
9006;DHT22;62284;50.702;7.140;2022-10-17T05:30:34;17.80;99.90
9006;DHT22;62284;50.702;7.140;2022-10-17T05:33:02;17.80;99.90
9006;DHT22;62284;50.702;7.140;2022-10-17T05:35:28;17.80;99.90
9006;DHT22;62284;50.702;7.140;2022-10-17T05:37:57;17.80;99.90
9006;DHT22;62284;50.702;7.140;2022-10-17T05:40:24;17.80;99.90
9006;DHT22;62284;50.702;7.140;2022-10-17T05:42:51;17.80;99.90
9006;DHT22;62284;50.702;7.140;2022-10-17T05:45:18;17.80;99.90
9006;DHT22;62284;50.702;7.140;2022-10-17T05:47:45;17.80;99.90
9006;DHT22;62284;50.702;7.140;2022-10-17T05:50:12;17.80;99.90
9006;DHT22;62284;50.702;7.140;2022-10-17T05:52:39;17.80;99.90
9006;DHT22;62284;50.702;7.140;2022-10-17T05:55:08;17.80;99.90
9006;DHT22;62284;50.702;7.140;2022-10-17T05:57:35;17.70;99.90
9006;DHT22;62284;50.702;7.140;2022-10-17T06:00:03;17.80;99.90
9006;DHT22;62284;50.702;7.140;2022-10-17T06:02:30;17.70;99.90
9006;DHT22;62284;50.702;7.140;2022-10-17T06:04:57;17.70;99.90
9006;DHT22;62284;50.702;7.140;2022-10-17T06:07:24;17.70;99.90
9006;DHT22;62284;50.702;7.140;2022-10-17T06:09:51;17.60;99.90
9006;DHT22;62284;50.702;7.140;2022-10-17T06:12:19;17.70;99.90
9006;DHT22;62284;50.702;7.140;2022-10-17T06:14:46;17.60;99.90
9006;DHT22;62284;50.702;7.140;2022-10-17T06:17:13;17.70;99.90
9006;DHT22;62284;50.702;7.140;2022-10-17T06:19:40;17.80;99.90
9006;DHT22;62284;50.702;7.140;2022-10-17T06:22:07;17.70;99.90
9006;DHT22;62284;50.702;7.140;2022-10-17T06:24:33;17.70;99.90
9006;DHT22;62284;50.702;7.140;2022-10-17T06:27:00;17.70;99.90
9006;DHT22;62284;50.702;7.140;2022-10-17T06:29:29;17.70;99.90
9006;DHT22;62284;50.702;7.140;2022-10-17T06:31:56;17.80;99.90
9006;DHT22;62284;50.702;7.140;2022-10-17T06:34:23;17.80;99.90
9006;DHT22;62284;50.702;7.140;2022-10-17T06:36:49;17.80;99.90
9006;DHT22;62284;50.702;7.140;2022-10-17T06:39:16;17.70;99.90
9006;DHT22;62284;50.702;7.140;2022-10-17T06:41:43;17.70;99.90
9006;DHT22;62284;50.702;7.140;2022-10-17T06:44:10;17.80;99.90
9006;DHT22;62284;50.702;7.140;2022-10-17T06:46:39;17.80;99.90
9006;DHT22;62284;50.702;7.140;2022-10-17T06:49:06;17.80;99.90
9006;DHT22;62284;50.702;7.140;2022-10-17T06:51:34;17.80;99.90
9006;DHT22;62284;50.702;7.140;2022-10-17T06:54:02;17.90;99.90
9006;DHT22;62284;50.702;7.140;2022-10-17T06:56:29;17.90;99.90
9006;DHT22;62284;50.702;7.140;2022-10-17T06:58:56;18.00;99.90
9006;DHT22;62284;50.702;7.140;2022-10-17T07:01:23;18.10;99.90
9006;DHT22;62284;50.702;7.140;2022-10-17T07:03:52;18.20;99.90
9006;DHT22;62284;50.702;7.140;2022-10-17T07:06:19;18.30;99.90
9006;DHT22;62284;50.702;7.140;2022-10-17T07:08:49;18.40;99.90
9006;DHT22;62284;50.702;7.140;2022-10-17T07:11:18;18.40;99.90
9006;DHT22;62284;50.702;7.140;2022-10-17T07:13:46;18.50;99.90
9006;DHT22;62284;50.702;7.140;2022-10-17T07:16:13;18.60;99.90
9006;DHT22;62284;50.702;7.140;2022-10-17T07:18:41;18.70;99.90
9006;DHT22;62284;50.702;7.140;2022-10-17T07:21:09;18.80;99.90
9006;DHT22;62284;50.702;7.140;2022-10-17T07:23:36;18.80;99.90
9006;DHT22;62284;50.702;7.140;2022-10-17T07:26:06;18.80;99.90
9006;DHT22;62284;50.702;7.140;2022-10-17T07:28:33;18.90;99.90
9006;DHT22;62284;50.702;7.140;2022-10-17T07:31:04;18.90;99.90
9006;DHT22;62284;50.702;7.140;2022-10-17T07:33:31;18.90;99.90
9006;DHT22;62284;50.702;7.140;2022-10-17T07:35:58;18.90;99.90
9006;DHT22;62284;50.702;7.140;2022-10-17T07:38:27;18.90;99.90
9006;DHT22;62284;50.702;7.140;2022-10-17T07:40:54;18.90;99.90
9006;DHT22;62284;50.702;7.140;2022-10-17T07:43:22;18.90;99.90
9006;DHT22;62284;50.702;7.140;2022-10-17T07:45:49;18.90;99.90
9006;DHT22;62284;50.702;7.140;2022-10-17T07:48:16;19.00;99.90
9006;DHT22;62284;50.702;7.140;2022-10-17T07:50:43;19.10;99.90
9006;DHT22;62284;50.702;7.140;2022-10-17T07:53:10;19.10;99.90
9006;DHT22;62284;50.702;7.140;2022-10-17T07:55:39;19.10;99.90
9006;DHT22;62284;50.702;7.140;2022-10-17T07:58:07;19.20;99.90
9006;DHT22;62284;50.702;7.140;2022-10-17T08:00:35;19.30;99.90
9006;DHT22;62284;50.702;7.140;2022-10-17T08:03:03;19.40;99.90
9006;DHT22;62284;50.702;7.140;2022-10-17T08:05:30;19.50;99.90
9006;DHT22;62284;50.702;7.140;2022-10-17T08:07:57;19.60;99.90
9006;DHT22;62284;50.702;7.140;2022-10-17T08:10:24;19.70;99.90
9006;DHT22;62284;50.702;7.140;2022-10-17T08:12:54;19.80;99.90
9006;DHT22;62284;50.702;7.140;2022-10-17T08:15:21;19.90;99.90
9006;DHT22;62284;50.702;7.140;2022-10-17T08:17:49;20.00;99.90
9006;DHT22;62284;50.702;7.140;2022-10-17T08:20:16;20.20;99.90
9006;DHT22;62284;50.702;7.140;2022-10-17T08:22:50;20.30;99.90
9006;DHT22;62284;50.702;7.140;2022-10-17T08:25:17;20.40;99.90
9006;DHT22;62284;50.702;7.140;2022-10-17T08:27:44;20.50;99.90
9006;DHT22;62284;50.702;7.140;2022-10-17T08:30:13;20.40;99.90
9006;DHT22;62284;50.702;7.140;2022-10-17T08:32:40;20.50;99.90
9006;DHT22;62284;50.702;7.140;2022-10-17T08:35:07;20.60;99.90
9006;DHT22;62284;50.702;7.140;2022-10-17T08:37:34;20.50;99.90
9006;DHT22;62284;50.702;7.140;2022-10-17T08:40:01;20.60;99.90
9006;DHT22;62284;50.702;7.140;2022-10-17T08:42:49;20.60;99.90
9006;DHT22;62284;50.702;7.140;2022-10-17T08:45:25;20.70;99.90
9006;DHT22;62284;50.702;7.140;2022-10-17T08:47:57;20.70;99.90
9006;DHT22;62284;50.702;7.140;2022-10-17T08:50:29;20.70;99.90
9006;DHT22;62284;50.702;7.140;2022-10-17T08:53:02;20.80;99.90
9006;DHT22;62284;50.702;7.140;2022-10-17T08:55:35;20.90;99.90
9006;DHT22;62284;50.702;7.140;2022-10-17T08:58:06;20.90;99.90
9006;DHT22;62284;50.702;7.140;2022-10-17T09:00:37;20.90;99.90
9006;DHT22;62284;50.702;7.140;2022-10-17T09:03:16;20.90;99.90
9006;DHT22;62284;50.702;7.140;2022-10-17T09:05:48;20.90;99.90
9006;DHT22;62284;50.702;7.140;2022-10-17T09:08:27;20.80;99.90
9006;DHT22;62284;50.702;7.140;2022-10-17T09:10:59;20.90;99.90
9006;DHT22;62284;50.702;7.140;2022-10-17T09:13:42;20.90;99.90
9006;DHT22;62284;50.702;7.140;2022-10-17T09:16:29;21.00;99.90
9006;DHT22;62284;50.702;7.140;2022-10-17T09:19:07;21.20;99.90
9006;DHT22;62284;50.702;7.140;2022-10-17T09:21:42;21.40;99.90
9006;DHT22;62284;50.702;7.140;2022-10-17T09:24:14;21.50;99.90
9006;DHT22;62284;50.702;7.140;2022-10-17T09:26:43;21.80;99.90
9006;DHT22;62284;50.702;7.140;2022-10-17T09:29:16;22.20;99.90
9006;DHT22;62284;50.702;7.140;2022-10-17T09:31:49;22.50;99.90
9006;DHT22;62284;50.702;7.140;2022-10-17T09:34:17;22.90;99.90
9006;DHT22;62284;50.702;7.140;2022-10-17T09:36:43;23.30;99.90
9006;DHT22;62284;50.702;7.140;2022-10-17T09:39:12;23.30;99.90
9006;DHT22;62284;50.702;7.140;2022-10-17T09:41:41;23.50;99.90
9006;DHT22;62284;50.702;7.140;2022-10-17T09:44:18;23.70;99.90
9006;DHT22;62284;50.702;7.140;2022-10-17T09:49:40;24.10;99.90
9006;DHT22;62284;50.702;7.140;2022-10-17T09:52:11;24.10;99.90
9006;DHT22;62284;50.702;7.140;2022-10-17T09:54:42;24.20;99.90
9006;DHT22;62284;50.702;7.140;2022-10-17T09:57:11;24.00;99.90
9006;DHT22;62284;50.702;7.140;2022-10-17T09:59:39;23.80;99.90
9006;DHT22;62284;50.702;7.140;2022-10-17T10:02:14;23.60;99.90
9006;DHT22;62284;50.702;7.140;2022-10-17T10:04:56;23.70;99.90
9006;DHT22;62284;50.702;7.140;2022-10-17T10:07:24;23.80;99.90
9006;DHT22;62284;50.702;7.140;2022-10-17T10:09:52;23.90;99.90
9006;DHT22;62284;50.702;7.140;2022-10-17T10:12:21;24.70;94.00
9006;DHT22;62284;50.702;7.140;2022-10-17T10:14:48;25.70;96.90
9006;DHT22;62284;50.702;7.140;2022-10-17T10:17:36;27.30;91.70
9006;DHT22;62284;50.702;7.140;2022-10-17T10:20:24;29.70;77.30
9006;DHT22;62284;50.702;7.140;2022-10-17T10:23:11;31.10;79.20
9006;DHT22;62284;50.702;7.140;2022-10-17T10:25:49;31.60;69.30
9006;DHT22;62284;50.702;7.140;2022-10-17T10:28:17;31.60;63.60
9006;DHT22;62284;50.702;7.140;2022-10-17T10:30:48;31.00;61.30
9006;DHT22;62284;50.702;7.140;2022-10-17T10:33:20;29.30;73.20
9006;DHT22;62284;50.702;7.140;2022-10-17T10:35:54;28.00;70.70
9006;DHT22;62284;50.702;7.140;2022-10-17T10:38:21;27.40;74.30
9006;DHT22;62284;50.702;7.140;2022-10-17T10:40:50;26.90;77.80
9006;DHT22;62284;50.702;7.140;2022-10-17T10:43:30;26.80;79.40
9006;DHT22;62284;50.702;7.140;2022-10-17T10:45:58;28.10;76.00
9006;DHT22;62284;50.702;7.140;2022-10-17T10:48:31;28.90;70.60
9006;DHT22;62284;50.702;7.140;2022-10-17T10:51:01;28.70;69.30
9006;DHT22;62284;50.702;7.140;2022-10-17T10:53:40;28.10;70.20
9006;DHT22;62284;50.702;7.140;2022-10-17T10:56:13;28.70;68.10
9006;DHT22;62284;50.702;7.140;2022-10-17T10:58:50;29.00;69.60
9006;DHT22;62284;50.702;7.140;2022-10-17T11:01:22;29.60;65.50
9006;DHT22;62284;50.702;7.140;2022-10-17T11:04:07;29.80;64.90
9006;DHT22;62284;50.702;7.140;2022-10-17T11:06:41;30.20;63.00
9006;DHT22;62284;50.702;7.140;2022-10-17T11:09:22;29.50;64.30
9006;DHT22;62284;50.702;7.140;2022-10-17T11:11:55;28.80;65.30
9006;DHT22;62284;50.702;7.140;2022-10-17T11:14:33;28.40;66.50
9006;DHT22;62284;50.702;7.140;2022-10-17T11:17:11;28.00;67.30
9006;DHT22;62284;50.702;7.140;2022-10-17T11:19:44;27.30;75.20
9006;DHT22;62284;50.702;7.140;2022-10-17T11:22:15;26.40;73.10
9006;DHT22;62284;50.702;7.140;2022-10-17T11:24:51;26.20;76.00
9006;DHT22;62284;50.702;7.140;2022-10-17T11:27:22;26.20;77.20
9006;DHT22;62284;50.702;7.140;2022-10-17T11:29:49;26.20;78.40
9006;DHT22;62284;50.702;7.140;2022-10-17T11:32:19;26.20;78.20
9006;DHT22;62284;50.702;7.140;2022-10-17T11:34:51;26.10;79.50
9006;DHT22;62284;50.702;7.140;2022-10-17T11:37:22;25.90;80.40
9006;DHT22;62284;50.702;7.140;2022-10-17T11:39:52;25.70;81.50
9006;DHT22;62284;50.702;7.140;2022-10-17T11:42:23;25.50;82.80
9006;DHT22;62284;50.702;7.140;2022-10-17T11:44:54;25.20;84.90
9006;DHT22;62284;50.702;7.140;2022-10-17T11:47:33;25.10;91.20
9006;DHT22;62284;50.702;7.140;2022-10-17T11:50:10;25.00;92.20
9006;DHT22;62284;50.702;7.140;2022-10-17T11:52:45;25.00;92.30
9006;DHT22;62284;50.702;7.140;2022-10-17T11:55:18;24.90;91.90
9006;DHT22;62284;50.702;7.140;2022-10-17T11:57:55;24.80;92.90
9006;DHT22;62284;50.702;7.140;2022-10-17T12:00:38;24.80;93.40
9006;DHT22;62284;50.702;7.140;2022-10-17T12:03:20;24.80;93.20
9006;DHT22;62284;50.702;7.140;2022-10-17T12:05:56;24.70;93.10
9006;DHT22;62284;50.702;7.140;2022-10-17T12:08:29;24.60;93.80
9006;DHT22;62284;50.702;7.140;2022-10-17T12:11:01;24.50;94.10
9006;DHT22;62284;50.702;7.140;2022-10-17T12:13:51;24.50;93.50
9006;DHT22;62284;50.702;7.140;2022-10-17T12:19:33;24.40;94.90
9006;DHT22;62284;50.702;7.140;2022-10-17T12:22:17;24.20;91.90
9006;DHT22;62284;50.702;7.140;2022-10-17T12:24:53;24.00;92.50
9006;DHT22;62284;50.702;7.140;2022-10-17T12:27:41;23.80;92.90
9006;DHT22;62284;50.702;7.140;2022-10-17T12:30:19;23.80;93.50
9006;DHT22;62284;50.702;7.140;2022-10-17T12:32:57;23.80;93.70
9006;DHT22;62284;50.702;7.140;2022-10-17T12:35:27;23.80;93.80
9006;DHT22;62284;50.702;7.140;2022-10-17T12:40:57;23.90;94.30
9006;DHT22;62284;50.702;7.140;2022-10-17T12:43:36;23.90;93.90
9006;DHT22;62284;50.702;7.140;2022-10-17T12:46:08;23.90;94.00
9006;DHT22;62284;50.702;7.140;2022-10-17T12:54:38;23.80;94.30
9006;DHT22;62284;50.702;7.140;2022-10-17T12:57:19;23.80;94.30
9006;DHT22;62284;50.702;7.140;2022-10-17T12:59:47;23.70;94.80
9006;DHT22;62284;50.702;7.140;2022-10-17T13:02:19;23.60;95.10
9006;DHT22;62284;50.702;7.140;2022-10-17T13:04:47;23.60;95.50
9006;DHT22;62284;50.702;7.140;2022-10-17T13:07:18;23.60;95.60
9006;DHT22;62284;50.702;7.140;2022-10-17T13:09:47;23.70;95.20
9006;DHT22;62284;50.702;7.140;2022-10-17T13:12:19;23.70;95.20
9006;DHT22;62284;50.702;7.140;2022-10-17T13:14:49;23.70;95.30
9006;DHT22;62284;50.702;7.140;2022-10-17T13:17:22;23.50;95.40
9006;DHT22;62284;50.702;7.140;2022-10-17T13:19:49;23.50;95.50
9006;DHT22;62284;50.702;7.140;2022-10-17T13:22:18;23.40;95.80
9006;DHT22;62284;50.702;7.140;2022-10-17T13:24:45;23.30;96.00
9006;DHT22;62284;50.702;7.140;2022-10-17T13:27:25;23.20;96.30
9006;DHT22;62284;50.702;7.140;2022-10-17T13:29:53;23.30;96.40
9006;DHT22;62284;50.702;7.140;2022-10-17T13:32:22;23.20;96.80
9006;DHT22;62284;50.702;7.140;2022-10-17T13:35:07;23.20;96.80
9006;DHT22;62284;50.702;7.140;2022-10-17T13:37:35;23.30;96.70
9006;DHT22;62284;50.702;7.140;2022-10-17T13:40:03;23.30;97.20
9006;DHT22;62284;50.702;7.140;2022-10-17T13:42:37;23.30;96.70
9006;DHT22;62284;50.702;7.140;2022-10-17T13:45:14;23.20;96.90
9006;DHT22;62284;50.702;7.140;2022-10-17T13:47:43;23.30;96.60
9006;DHT22;62284;50.702;7.140;2022-10-17T13:50:19;23.20;96.70
9006;DHT22;62284;50.702;7.140;2022-10-17T13:52:47;23.20;96.70
9006;DHT22;62284;50.702;7.140;2022-10-17T13:55:16;23.20;96.60
9006;DHT22;62284;50.702;7.140;2022-10-17T13:57:45;23.20;96.60
9006;DHT22;62284;50.702;7.140;2022-10-17T14:00:18;23.20;96.90
9006;DHT22;62284;50.702;7.140;2022-10-17T14:02:46;23.10;96.50
9006;DHT22;62284;50.702;7.140;2022-10-17T14:05:15;23.20;96.70
9006;DHT22;62284;50.702;7.140;2022-10-17T14:07:45;23.30;96.40
9006;DHT22;62284;50.702;7.140;2022-10-17T14:10:20;23.20;96.80
9006;DHT22;62284;50.702;7.140;2022-10-17T14:12:50;23.20;96.80
9006;DHT22;62284;50.702;7.140;2022-10-17T14:15:17;23.20;97.90
9006;DHT22;62284;50.702;7.140;2022-10-17T14:17:45;23.10;98.20
9006;DHT22;62284;50.702;7.140;2022-10-17T14:20:20;23.10;98.00
9006;DHT22;62284;50.702;7.140;2022-10-17T14:22:48;23.10;98.60
9006;DHT22;62284;50.702;7.140;2022-10-17T14:25:29;23.10;99.00
9006;DHT22;62284;50.702;7.140;2022-10-17T14:28:01;23.20;98.60
9006;DHT22;62284;50.702;7.140;2022-10-17T14:30:34;23.20;97.10
9006;DHT22;62284;50.702;7.140;2022-10-17T14:33:06;23.10;97.60
9006;DHT22;62284;50.702;7.140;2022-10-17T14:35:33;23.20;98.00
9006;DHT22;62284;50.702;7.140;2022-10-17T14:38:01;23.20;98.20
9006;DHT22;62284;50.702;7.140;2022-10-17T14:40:30;23.10;99.10
9006;DHT22;62284;50.702;7.140;2022-10-17T14:43:01;23.10;99.30
9006;DHT22;62284;50.702;7.140;2022-10-17T14:45:31;23.00;99.70
9006;DHT22;62284;50.702;7.140;2022-10-17T14:48:02;23.00;99.90
9006;DHT22;62284;50.702;7.140;2022-10-17T14:50:31;22.90;99.90
9006;DHT22;62284;50.702;7.140;2022-10-17T14:53:03;22.90;99.90
9006;DHT22;62284;50.702;7.140;2022-10-17T14:55:32;22.80;99.90
9006;DHT22;62284;50.702;7.140;2022-10-17T14:58:14;22.80;99.90
9006;DHT22;62284;50.702;7.140;2022-10-17T15:00:41;22.80;99.90
9006;DHT22;62284;50.702;7.140;2022-10-17T15:03:08;22.70;99.90
9006;DHT22;62284;50.702;7.140;2022-10-17T15:05:35;22.60;99.90
9006;DHT22;62284;50.702;7.140;2022-10-17T15:08:02;22.60;99.90
9006;DHT22;62284;50.702;7.140;2022-10-17T15:10:34;22.50;99.90
9006;DHT22;62284;50.702;7.140;2022-10-17T15:13:02;22.50;99.90
9006;DHT22;62284;50.702;7.140;2022-10-17T15:15:30;22.40;99.90
9006;DHT22;62284;50.702;7.140;2022-10-17T15:17:57;22.50;99.80
9006;DHT22;62284;50.702;7.140;2022-10-17T15:20:25;22.40;99.60
9006;DHT22;62284;50.702;7.140;2022-10-17T15:22:54;22.40;99.80
9006;DHT22;62284;50.702;7.140;2022-10-17T15:25:23;22.40;99.60
9006;DHT22;62284;50.702;7.140;2022-10-17T15:27:50;22.40;98.70
9006;DHT22;62284;50.702;7.140;2022-10-17T15:30:21;22.30;99.90
9006;DHT22;62284;50.702;7.140;2022-10-17T15:32:48;22.20;99.90
9006;DHT22;62284;50.702;7.140;2022-10-17T15:35:16;22.20;99.90
9006;DHT22;62284;50.702;7.140;2022-10-17T15:37:43;22.10;99.90
9006;DHT22;62284;50.702;7.140;2022-10-17T15:40:14;22.10;99.90
9006;DHT22;62284;50.702;7.140;2022-10-17T15:42:42;22.00;99.90
9006;DHT22;62284;50.702;7.140;2022-10-17T15:45:09;21.90;99.90
9006;DHT22;62284;50.702;7.140;2022-10-17T15:47:39;21.90;99.90
9006;DHT22;62284;50.702;7.140;2022-10-17T15:50:09;21.90;99.90
9006;DHT22;62284;50.702;7.140;2022-10-17T15:52:37;21.90;99.90
9006;DHT22;62284;50.702;7.140;2022-10-17T15:55:04;21.90;99.90
9006;DHT22;62284;50.702;7.140;2022-10-17T15:57:35;21.90;99.90
9006;DHT22;62284;50.702;7.140;2022-10-17T16:00:04;21.90;99.90
9006;DHT22;62284;50.702;7.140;2022-10-17T16:02:32;21.90;99.90
9006;DHT22;62284;50.702;7.140;2022-10-17T16:05:00;21.80;99.50
9006;DHT22;62284;50.702;7.140;2022-10-17T16:07:27;21.70;99.90
9006;DHT22;62284;50.702;7.140;2022-10-17T16:09:54;21.60;99.90
9006;DHT22;62284;50.702;7.140;2022-10-17T16:12:25;21.50;99.90
9006;DHT22;62284;50.702;7.140;2022-10-17T16:14:52;21.50;99.90
9006;DHT22;62284;50.702;7.140;2022-10-17T16:17:19;21.50;99.90
9006;DHT22;62284;50.702;7.140;2022-10-17T16:19:46;21.40;99.90
9006;DHT22;62284;50.702;7.140;2022-10-17T16:22:21;21.40;99.90